sensor_id;sensor_type;location;lat;lon;timestamp;P1;durP1;ratioP1;P2;durP2;ratioP2
21647;SDS011;10985;54.182;7.890;2023-04-05T18:10:35;12.35;;;8.48;;
21647;SDS011;10985;54.182;7.890;2023-04-05T18:13:00;7.25;;;5.88;;
21647;SDS011;10985;54.182;7.890;2023-04-05T18:15:26;6.97;;;5.03;;
21647;SDS011;10985;54.182;7.890;2023-04-05T18:17:51;10.80;;;5.93;;
21647;SDS011;10985;54.182;7.890;2023-04-05T18:20:17;7.05;;;4.75;;
21647;SDS011;10985;54.182;7.890;2023-04-05T18:22:43;6.18;;;4.60;;
21647;SDS011;10985;54.182;7.890;2023-04-05T18:25:08;24.00;;;18.63;;
21647;SDS011;10985;54.182;7.890;2023-04-05T18:27:35;5.93;;;5.00;;
21647;SDS011;10985;54.182;7.890;2023-04-05T18:30:01;8.95;;;5.40;;
21647;SDS011;10985;54.182;7.890;2023-04-05T18:32:27;5.88;;;5.35;;
21647;SDS011;10985;54.182;7.890;2023-04-05T18:34:52;6.38;;;4.88;;
21647;SDS011;10985;54.182;7.890;2023-04-05T18:37:18;5.57;;;4.97;;
21647;SDS011;10985;54.182;7.890;2023-04-05T18:39:43;5.75;;;5.30;;
21647;SDS011;10985;54.182;7.890;2023-04-05T18:42:09;6.88;;;5.93;;
21647;SDS011;10985;54.182;7.890;2023-04-05T18:44:35;6.07;;;5.45;;
21647;SDS011;10985;54.182;7.890;2023-04-05T18:47:00;8.07;;;7.28;;
21647;SDS011;10985;54.182;7.890;2023-04-05T18:49:26;6.75;;;6.03;;
21647;SDS011;10985;54.182;7.890;2023-04-05T18:51:52;8.77;;;6.40;;
21647;SDS011;10985;54.182;7.890;2023-04-05T18:54:19;6.28;;;5.78;;
21647;SDS011;10985;54.182;7.890;2023-04-05T18:56:45;5.80;;;5.18;;
21647;SDS011;10985;54.182;7.890;2023-04-05T18:59:10;6.10;;;5.40;;
21647;SDS011;10985;54.182;7.890;2023-04-05T19:01:36;9.75;;;5.80;;
21647;SDS011;10985;54.182;7.890;2023-04-05T19:04:02;10.68;;;5.97;;
21647;SDS011;10985;54.182;7.890;2023-04-05T19:06:29;7.30;;;5.68;;
21647;SDS011;10985;54.182;7.890;2023-04-05T19:08:56;6.10;;;5.50;;
21647;SDS011;10985;54.182;7.890;2023-04-05T19:11:21;8.95;;;6.13;;
21647;SDS011;10985;54.182;7.890;2023-04-05T19:13:47;7.30;;;6.47;;
21647;SDS011;10985;54.182;7.890;2023-04-05T19:16:12;8.02;;;6.93;;
21647;SDS011;10985;54.182;7.890;2023-04-05T19:18:41;7.78;;;6.82;;
21647;SDS011;10985;54.182;7.890;2023-04-05T19:21:06;8.13;;;6.97;;
21647;SDS011;10985;54.182;7.890;2023-04-05T19:23:32;11.05;;;7.65;;
21647;SDS011;10985;54.182;7.890;2023-04-05T19:25:58;10.00;;;7.78;;
21647;SDS011;10985;54.182;7.890;2023-04-05T19:28:23;9.13;;;8.05;;
21647;SDS011;10985;54.182;7.890;2023-04-05T19:30:50;9.95;;;8.85;;
21647;SDS011;10985;54.182;7.890;2023-04-05T19:33:15;12.18;;;8.82;;
21647;SDS011;10985;54.182;7.890;2023-04-05T19:35:41;9.98;;;8.18;;
21647;SDS011;10985;54.182;7.890;2023-04-05T19:38:06;11.80;;;8.27;;
21647;SDS011;10985;54.182;7.890;2023-04-05T19:40:33;8.75;;;7.95;;
21647;SDS011;10985;54.182;7.890;2023-04-05T19:43:01;10.15;;;8.23;;
21647;SDS011;10985;54.182;7.890;2023-04-05T19:45:28;11.13;;;7.72;;
21647;SDS011;10985;54.182;7.890;2023-04-05T19:47:55;9.38;;;8.18;;
21647;SDS011;10985;54.182;7.890;2023-04-05T19:53:25;13.50;;;8.65;;
21647;SDS011;10985;54.182;7.890;2023-04-05T19:56:17;11.20;;;8.63;;
21647;SDS011;10985;54.182;7.890;2023-04-05T19:58:46;10.35;;;9.18;;
21647;SDS011;10985;54.182;7.890;2023-04-05T20:01:20;13.02;;;9.60;;
21647;SDS011;10985;54.182;7.890;2023-04-05T20:03:58;14.82;;;9.60;;
21647;SDS011;10985;54.182;7.890;2023-04-05T20:06:25;9.93;;;8.77;;
21647;SDS011;10985;54.182;7.890;2023-04-05T20:09:00;9.48;;;8.60;;
21647;SDS011;10985;54.182;7.890;2023-04-05T20:11:28;11.57;;;10.15;;
21647;SDS011;10985;54.182;7.890;2023-04-05T20:13:55;10.98;;;9.70;;
21647;SDS011;10985;54.182;7.890;2023-04-05T20:16:26;10.38;;;9.38;;
21647;SDS011;10985;54.182;7.890;2023-04-05T20:19:00;13.65;;;9.82;;
21647;SDS011;10985;54.182;7.890;2023-04-05T20:21:30;12.38;;;10.07;;
21647;SDS011;10985;54.182;7.890;2023-04-05T20:23:56;11.70;;;9.40;;
21647;SDS011;10985;54.182;7.890;2023-04-05T20:26:25;10.32;;;9.30;;
21647;SDS011;10985;54.182;7.890;2023-04-05T20:28:52;10.90;;;8.63;;
21647;SDS011;10985;54.182;7.890;2023-04-05T20:33:56;13.07;;;9.68;;
21647;SDS011;10985;54.182;7.890;2023-04-05T20:36:29;12.77;;;10.30;;
21647;SDS011;10985;54.182;7.890;2023-04-05T20:38:59;11.85;;;10.40;;
21647;SDS011;10985;54.182;7.890;2023-04-05T20:41:26;13.60;;;10.30;;
21647;SDS011;10985;54.182;7.890;2023-04-05T20:43:51;12.27;;;9.98;;
21647;SDS011;10985;54.182;7.890;2023-04-05T20:46:18;13.98;;;10.88;;
21647;SDS011;10985;54.182;7.890;2023-04-05T20:48:44;12.57;;;11.23;;
21647;SDS011;10985;54.182;7.890;2023-04-05T20:51:10;15.05;;;11.50;;
21647;SDS011;10985;54.182;7.890;2023-04-05T20:53:36;13.88;;;11.77;;
21647;SDS011;10985;54.182;7.890;2023-04-05T20:56:03;12.18;;;10.95;;
21647;SDS011;10985;54.182;7.890;2023-04-05T20:58:30;12.38;;;11.07;;
21647;SDS011;10985;54.182;7.890;2023-04-05T21:00:56;17.80;;;12.05;;
21647;SDS011;10985;54.182;7.890;2023-04-05T21:03:21;16.05;;;12.90;;
21647;SDS011;10985;54.182;7.890;2023-04-05T21:05:47;14.73;;;12.85;;
21647;SDS011;10985;54.182;7.890;2023-04-05T21:08:13;15.52;;;12.48;;
21647;SDS011;10985;54.182;7.890;2023-04-05T21:10:39;12.18;;;10.88;;
21647;SDS011;10985;54.182;7.890;2023-04-05T21:13:05;12.45;;;11.13;;
21647;SDS011;10985;54.182;7.890;2023-04-05T21:15:31;16.65;;;11.95;;
21647;SDS011;10985;54.182;7.890;2023-04-05T21:17:56;12.18;;;10.35;;
21647;SDS011;10985;54.182;7.890;2023-04-05T21:20:26;12.93;;;11.60;;
21647;SDS011;10985;54.182;7.890;2023-04-05T21:22:52;11.05;;;10.05;;
21647;SDS011;10985;54.182;7.890;2023-04-05T21:25:18;13.35;;;10.20;;
21647;SDS011;10985;54.182;7.890;2023-04-05T21:27:43;10.20;;;9.20;;
21647;SDS011;10985;54.182;7.890;2023-04-05T21:30:09;11.15;;;9.35;;
21647;SDS011;10985;54.182;7.890;2023-04-05T21:32:35;12.07;;;9.73;;
21647;SDS011;10985;54.182;7.890;2023-04-05T21:35:00;11.27;;;10.00;;
21647;SDS011;10985;54.182;7.890;2023-04-05T21:37:26;13.40;;;10.60;;
21647;SDS011;10985;54.182;7.890;2023-04-05T21:39:51;10.82;;;9.77;;
21647;SDS011;10985;54.182;7.890;2023-04-05T21:42:17;10.95;;;9.85;;
21647;SDS011;10985;54.182;7.890;2023-04-05T21:44:42;12.13;;;10.63;;
21647;SDS011;10985;54.182;7.890;2023-04-05T21:47:08;12.80;;;9.52;;
21647;SDS011;10985;54.182;7.890;2023-04-05T21:49:33;10.55;;;9.40;;
21647;SDS011;10985;54.182;7.890;2023-04-05T21:51:59;11.27;;;9.60;;
21647;SDS011;10985;54.182;7.890;2023-04-05T21:54:24;13.68;;;9.05;;
21647;SDS011;10985;54.182;7.890;2023-04-05T21:56:50;12.18;;;9.38;;
21647;SDS011;10985;54.182;7.890;2023-04-05T21:59:15;13.45;;;9.90;;
21647;SDS011;10985;54.182;7.890;2023-04-05T22:01:41;12.48;;;9.57;;
21647;SDS011;10985;54.182;7.890;2023-04-05T22:04:06;11.52;;;9.82;;
21647;SDS011;10985;54.182;7.890;2023-04-05T22:06:32;12.40;;;9.50;;
21647;SDS011;10985;54.182;7.890;2023-04-05T22:08:57;12.38;;;9.10;;
21647;SDS011;10985;54.182;7.890;2023-04-05T22:11:23;14.35;;;10.05;;
21647;SDS011;10985;54.182;7.890;2023-04-05T22:13:49;14.55;;;9.55;;
21647;SDS011;10985;54.182;7.890;2023-04-05T22:16:15;14.30;;;9.85;;
21647;SDS011;10985;54.182;7.890;2023-04-05T22:18:40;11.48;;;10.00;;
21647;SDS011;10985;54.182;7.890;2023-04-05T22:21:06;11.15;;;9.98;;
21647;SDS011;10985;54.182;7.890;2023-04-05T22:23:31;11.48;;;10.15;;
21647;SDS011;10985;54.182;7.890;2023-04-05T22:25:57;12.25;;;10.43;;
21647;SDS011;10985;54.182;7.890;2023-04-05T22:28:22;12.32;;;10.23;;
21647;SDS011;10985;54.182;7.890;2023-04-05T22:30:48;14.20;;;9.57;;
21647;SDS011;10985;54.182;7.890;2023-04-05T22:33:13;13.00;;;9.40;;
21647;SDS011;10985;54.182;7.890;2023-04-05T22:35:39;11.50;;;9.70;;
21647;SDS011;10985;54.182;7.890;2023-04-05T22:38:05;12.13;;;9.82;;
21647;SDS011;10985;54.182;7.890;2023-04-05T22:40:31;14.55;;;10.43;;
21647;SDS011;10985;54.182;7.890;2023-04-05T22:42:56;12.25;;;9.43;;
21647;SDS011;10985;54.182;7.890;2023-04-05T22:45:22;13.00;;;9.70;;
21647;SDS011;10985;54.182;7.890;2023-04-05T22:47:49;11.90;;;9.20;;
21647;SDS011;10985;54.182;7.890;2023-04-05T22:50:14;10.93;;;9.63;;
21647;SDS011;10985;54.182;7.890;2023-04-05T22:52:41;9.95;;;8.95;;
21647;SDS011;10985;54.182;7.890;2023-04-05T22:55:07;14.38;;;9.95;;
21647;SDS011;10985;54.182;7.890;2023-04-05T22:57:32;10.70;;;9.63;;
21647;SDS011;10985;54.182;7.890;2023-04-05T22:59:58;12.43;;;9.68;;
21647;SDS011;10985;54.182;7.890;2023-04-05T23:02:24;12.50;;;9.85;;
21647;SDS011;10985;54.182;7.890;2023-04-05T23:04:49;12.95;;;8.85;;
21647;SDS011;10985;54.182;7.890;2023-04-05T23:07:15;12.23;;;8.75;;
21647;SDS011;10985;54.182;7.890;2023-04-05T23:09:41;11.40;;;8.48;;
21647;SDS011;10985;54.182;7.890;2023-04-05T23:12:06;10.15;;;7.60;;
21647;SDS011;10985;54.182;7.890;2023-04-05T23:14:32;12.70;;;8.30;;
21647;SDS011;10985;54.182;7.890;2023-04-05T23:16:57;9.38;;;8.20;;
21647;SDS011;10985;54.182;7.890;2023-04-05T23:19:23;9.15;;;8.20;;
21647;SDS011;10985;54.182;7.890;2023-04-05T23:21:48;12.00;;;9.57;;
21647;SDS011;10985;54.182;7.890;2023-04-05T23:24:14;12.30;;;10.27;;
21647;SDS011;10985;54.182;7.890;2023-04-05T23:26:40;15.88;;;11.23;;
21647;SDS011;10985;54.182;7.890;2023-04-05T23:29:05;15.77;;;11.48;;
21647;SDS011;10985;54.182;7.890;2023-04-05T23:31:31;16.05;;;11.18;;
21647;SDS011;10985;54.182;7.890;2023-04-05T23:33:56;15.07;;;10.63;;
21647;SDS011;10985;54.182;7.890;2023-04-05T23:36:22;16.33;;;11.77;;
21647;SDS011;10985;54.182;7.890;2023-04-05T23:38:47;19.38;;;12.18;;
21647;SDS011;10985;54.182;7.890;2023-04-05T23:41:13;16.67;;;12.38;;
21647;SDS011;10985;54.182;7.890;2023-04-05T23:43:38;19.65;;;12.23;;
21647;SDS011;10985;54.182;7.890;2023-04-05T23:46:04;17.95;;;13.27;;
21647;SDS011;10985;54.182;7.890;2023-04-05T23:48:30;18.35;;;13.10;;
21647;SDS011;10985;54.182;7.890;2023-04-05T23:50:56;17.30;;;12.00;;
21647;SDS011;10985;54.182;7.890;2023-04-05T23:53:21;16.48;;;12.27;;
21647;SDS011;10985;54.182;7.890;2023-04-05T23:55:47;17.08;;;13.15;;
21647;SDS011;10985;54.182;7.890;2023-04-05T23:58:13;17.25;;;12.63;;
